BAW60 EGLL-FACT
Flight info
| Callsign | BAW60 |
|---|---|
| Flight time | N/A |
| Altitude | 33000 |
| Route | MAXIT Y803 MID L612 HAWKE UL612 VEULE DCT DEKOD DCT DISAK DCT DIRMO DCT ETAMO DCT ADEKA DCT MOKDI DCT MEN DCT AMLIR DCT FJR DCT OBLAD DCT KAMER UM998 CSO UA605 DJA UB730 DIR UA607 FL UA403 BZ DCT KSA UT943 VEDRY UN185 OKLOK Q23 DUMDO DCT ERDAS ERDAS1B |
| Aircraft | A35K/H-SDE2E3GHIJ3J4J5LM1ORWXY/LB1D1 |
Departure
| Time | 2026-05-06 06:13 |
|---|---|
| Airport | London Heathrow Airport (EGLL) |
Arrival
| Time | N/A |
|---|---|
| Airport | Cape Town International Airport (FACT) |
| Time | Latitude | Longitude | Altitude | Speed | Heading |
|---|---|---|---|---|---|
| 2026-05-06 05:51 | 51.47220 | -0.47729 | 95 ft | 0 kts | 89° |
| 2026-05-06 06:02 | 51.47220 | -0.47733 | 94 ft | 2 kts | 89° |
| 2026-05-06 06:03 | 51.47220 | -0.47775 | 90 ft | 4 kts | 89° |
| 2026-05-06 06:03 | 51.47220 | -0.47810 | 90 ft | 4 kts | 91° |
| 2026-05-06 06:03 | 51.47225 | -0.47850 | 92 ft | 4 kts | 125° |
| 2026-05-06 06:03 | 51.47243 | -0.47871 | 91 ft | 3 kts | 179° |
| 2026-05-06 06:04 | 51.47269 | -0.47871 | 92 ft | 4 kts | 179° |
| 2026-05-06 06:04 | 51.47281 | -0.47871 | 92 ft | 0 kts | 179° |
| 2026-05-06 06:06 | 51.47280 | -0.47871 | 92 ft | 1 kts | 179° |
| 2026-05-06 06:06 | 51.47260 | -0.47871 | 91 ft | 9 kts | 180° |
| 2026-05-06 06:06 | 51.47123 | -0.47869 | 92 ft | 29 kts | 180° |
| 2026-05-06 06:06 | 51.46934 | -0.47869 | 92 ft | 27 kts | 180° |
| 2026-05-06 06:07 | 51.46743 | -0.47868 | 92 ft | 28 kts | 180° |
| 2026-05-06 06:07 | 51.46667 | -0.47813 | 97 ft | 9 kts | 118° |
| 2026-05-06 06:07 | 51.46655 | -0.47691 | 94 ft | 12 kts | 91° |
| 2026-05-06 06:07 | 51.46655 | -0.47539 | 94 ft | 15 kts | 90° |
| 2026-05-06 06:08 | 51.46655 | -0.47359 | 94 ft | 17 kts | 90° |
| 2026-05-06 06:08 | 51.46656 | -0.47155 | 95 ft | 19 kts | 89° |
| 2026-05-06 06:08 | 51.46657 | -0.46931 | 95 ft | 21 kts | 89° |
| 2026-05-06 06:08 | 51.46659 | -0.46687 | 95 ft | 23 kts | 89° |
| 2026-05-06 06:09 | 51.46660 | -0.46434 | 96 ft | 23 kts | 89° |
| 2026-05-06 06:09 | 51.46661 | -0.46175 | 92 ft | 23 kts | 89° |
| 2026-05-06 06:09 | 51.46661 | -0.45913 | 93 ft | 24 kts | 90° |
| 2026-05-06 06:09 | 51.46662 | -0.45652 | 95 ft | 24 kts | 90° |
| 2026-05-06 06:10 | 51.46663 | -0.45384 | 94 ft | 24 kts | 90° |
| 2026-05-06 06:10 | 51.46663 | -0.45115 | 92 ft | 24 kts | 90° |
| 2026-05-06 06:10 | 51.46664 | -0.44843 | 92 ft | 24 kts | 89° |
| 2026-05-06 06:10 | 51.46665 | -0.44569 | 95 ft | 25 kts | 90° |
| 2026-05-06 06:11 | 51.46666 | -0.44292 | 94 ft | 25 kts | 90° |
| 2026-05-06 06:11 | 51.46667 | -0.44012 | 92 ft | 25 kts | 89° |
| 2026-05-06 06:11 | 51.46668 | -0.43729 | 95 ft | 25 kts | 89° |
| 2026-05-06 06:11 | 51.46614 | -0.43612 | 96 ft | 9 kts | 168° |
| 2026-05-06 06:12 | 51.46549 | -0.43603 | 92 ft | 10 kts | 177° |
| 2026-05-06 06:12 | 51.46502 | -0.43636 | 95 ft | 6 kts | 245° |
| 2026-05-06 06:12 | 51.46498 | -0.43667 | 95 ft | 0 kts | 264° |
| 2026-05-06 06:12 | 51.46496 | -0.43715 | 94 ft | 19 kts | 270° |
| 2026-05-06 06:13 | 51.46492 | -0.44493 | 94 ft | 90 kts | 269° |
| 2026-05-06 06:13 | 51.46491 | -0.45302 | 95 ft | 125 kts | 269° |
| 2026-05-06 06:13 | 51.46482 | -0.46944 | 172 ft | 159 kts | 271° |
| 2026-05-06 06:13 | 51.46447 | -0.48600 | 870 ft | 145 kts | 270° |
| 2026-05-06 06:14 | 51.46383 | -0.50232 | 1260 ft | 149 kts | 270° |
| 2026-05-06 06:14 | 51.46583 | -0.51910 | 1409 ft | 160 kts | 297° |
| 2026-05-06 06:14 | 51.46965 | -0.53604 | 1810 ft | 165 kts | 292° |
| 2026-05-06 06:14 | 51.47076 | -0.55572 | 2035 ft | 187 kts | 271° |
| 2026-05-06 06:15 | 51.46748 | -0.57702 | 2240 ft | 211 kts | 246° |
| 2026-05-06 06:15 | 51.45698 | -0.59464 | 2469 ft | 230 kts | 209° |
| 2026-05-06 06:15 | 51.44144 | -0.60159 | 2924 ft | 235 kts | 186° |
| 2026-05-06 06:15 | 51.42494 | -0.60437 | 3323 ft | 246 kts | 185° |
| 2026-05-06 06:16 | 51.40728 | -0.60711 | 3572 ft | 264 kts | 185° |
| 2026-05-06 06:16 | 51.38889 | -0.60550 | 3987 ft | 273 kts | 165° |
| 2026-05-06 06:16 | 51.37061 | -0.59653 | 4590 ft | 277 kts | 160° |
| 2026-05-06 06:16 | 51.35237 | -0.58623 | 5226 ft | 280 kts | 160° |
| 2026-05-06 06:17 | 51.33391 | -0.57578 | 5874 ft | 283 kts | 161° |
| 2026-05-06 06:17 | 51.31527 | -0.56542 | 6565 ft | 285 kts | 162° |
| 2026-05-06 06:17 | 51.29620 | -0.55679 | 7221 ft | 286 kts | 173° |
| 2026-05-06 06:17 | 51.27644 | -0.55674 | 7926 ft | 285 kts | 187° |
| 2026-05-06 06:18 | 51.25660 | -0.56012 | 8588 ft | 288 kts | 189° |
| 2026-05-06 06:18 | 51.23663 | -0.56503 | 9260 ft | 292 kts | 192° |
| 2026-05-06 06:18 | 51.21662 | -0.57121 | 9977 ft | 293 kts | 193° |
| 2026-05-06 06:18 | 51.19630 | -0.57806 | 10422 ft | 306 kts | 193° |
| 2026-05-06 06:19 | 51.17492 | -0.58540 | 10739 ft | 322 kts | 193° |
| 2026-05-06 06:19 | 51.15244 | -0.59305 | 11055 ft | 338 kts | 193° |
| 2026-05-06 06:19 | 51.12891 | -0.60089 | 11376 ft | 353 kts | 193° |
| 2026-05-06 06:19 | 51.10436 | -0.60893 | 11697 ft | 367 kts | 192° |
| 2026-05-06 06:20 | 51.07864 | -0.61535 | 12000 ft | 382 kts | 184° |
| 2026-05-06 06:20 | 51.05195 | -0.61196 | 12419 ft | 391 kts | 167° |
| 2026-05-06 06:20 | 51.02636 | -0.59605 | 12847 ft | 400 kts | 153° |
| 2026-05-06 06:20 | 51.00208 | -0.57386 | 13463 ft | 403 kts | 148° |
| 2026-05-06 06:21 | 50.97872 | -0.54921 | 14083 ft | 406 kts | 146° |
| 2026-05-06 06:21 | 50.95552 | -0.52335 | 14605 ft | 410 kts | 145° |
| 2026-05-06 06:21 | 50.93204 | -0.49693 | 14996 ft | 417 kts | 145° |
| 2026-05-06 06:21 | 50.90875 | -0.47108 | 15497 ft | 421 kts | 146° |
| 2026-05-06 06:22 | 50.88459 | -0.44473 | 16092 ft | 422 kts | 146° |
| 2026-05-06 06:22 | 50.86019 | -0.41854 | 16577 ft | 427 kts | 147° |
| 2026-05-06 06:22 | 50.83537 | -0.39217 | 17059 ft | 431 kts | 147° |
| 2026-05-06 06:22 | 50.81041 | -0.36578 | 17629 ft | 433 kts | 147° |
| 2026-05-06 06:23 | 50.78557 | -0.33960 | 18170 ft | 436 kts | 147° |
| 2026-05-06 06:23 | 50.76024 | -0.31293 | 18655 ft | 439 kts | 147° |
| 2026-05-06 06:23 | 50.73474 | -0.28609 | 19153 ft | 442 kts | 147° |
| 2026-05-06 06:23 | 50.70913 | -0.25917 | 19684 ft | 444 kts | 147° |
| 2026-05-06 06:24 | 50.68337 | -0.23210 | 20234 ft | 446 kts | 148° |
| 2026-05-06 06:24 | 50.65749 | -0.20495 | 20808 ft | 447 kts | 148° |
| 2026-05-06 06:24 | 50.63149 | -0.17771 | 21295 ft | 451 kts | 147° |
| 2026-05-06 06:24 | 50.60520 | -0.15020 | 21727 ft | 456 kts | 148° |
| 2026-05-06 06:25 | 50.57869 | -0.12253 | 22372 ft | 454 kts | 147° |
| 2026-05-06 06:25 | 50.55230 | -0.09492 | 22941 ft | 457 kts | 148° |